Meath Environmental Platform

Observations for Trim Market St

Time AQI Temp °C Hum % Pres Pa CO μg/m³ H₂S μg/m³ NO μg/m³ NO₂ μg/m³ O₃ μg/m³ SO₂ μg/m³ PM1 μg/m³ PM2.5 μg/m³ PM10 μg/m³
Tuesday 14 July 2026
14:53 1 35.2 24 66,465 0 0 0 7.1 43.43 0 2.85 5.75 6.33
14:52 1 35.1 24 66,485 0 0 0 3.76 46.58 0 1.43 5.22 5.74
14:51 1 35.1 24 66,476 0 0 0 0 40.08 0 1.43 5.24 5.76
14:50 1 35.1 23 66,489 0 0 0 5.34 42.96 0 2.14 5.8 7.52
14:49 1 35.1 23 66,485 0 0 0 0 33.71 0 2.14 6.92 7.61
14:48 1 35.1 23 66,505 0 0 0 0 38.51 0 2.14 5.81 6.39
14:47 1 35.1 23 66,501 0 0 0 0 18.68 0 1.43 5.25 5.78
14:46 1 35.1 24 66,501 0 0 0 2.32 44.9 0 2.14 5.79 6.37
14:45 1 35.2 23 66,503 0 0 0 0 32.4 0 1.43 5.25 5.78
14:44 1 35.2 23 66,476 0 0 0 0 49.41 0.54 1.43 4.7 5.17
14:43 1 35.3 23 66,469 0 0 0 0 40.19 0 1.43 4.71 5.18
14:40 1 35.3 23 66,474 0 0 0 0 26.92 0 1.43 5.25 5.78
14:38 1 35.3 23 66,481 0 0 0 0 36.69 0 0.71 4.15 4.56
14:36 1 35.3 24 66,487 0 0 0 0 26.43 0 2.14 5.79 6.37
14:33 1 35.2 24 66,507 0 0 0 0 28.8 0 2.14 5.2 5.72
14:25 1 35 26 66,465 0 0 0 2.48 36.11 0 1.43 5.13 5.65
14:24 1 35 26 66,487 0 0 0 0.8 29.93 0 2.14 5.69 6.25
14:21 1 35 26 66,433 0 0 0 0 35.69 0.03 0.71 5.13 5.65
14:20 1 35 26 66,443 0 0 0 0 28.7 0 2.14 5.13 5.64
14:18 1 35 26 66,437 0 0 0 3.53 43.57 0.39 1.43 4.56 5.02